Time;durP1;ratioP1;P1;durP2;ratioP2;P2;SDS_P1;SDS_P2;PMS_P1;PMS_P2;Temp;Humidity;BMP_temperature;BMP_pressure;BME280_temperature;BME280_humidity;BME280_pressure;Samples;Min_cycle;Max_cycle;Signal;HPM_P1;HPM_P2
2022/12/02 00:01:27;;;;;;;64.63;23.08;;;;;;;3.37;100.00;102891.38;7378870;19;20015;-77
2022/12/02 00:03:59;;;;;;;59.97;22.35;;;;;;;3.38;100.00;102894.06;7374981;19;20006;-78
2022/12/02 00:06:32;;;;;;;60.08;22.25;;;;;;;3.40;100.00;102901.97;7376683;19;20019;-77
2022/12/02 00:09:09;;;;;;;53.53;23.23;;;;;;;3.41;100.00;102888.22;7378021;19;20011;-77
2022/12/02 00:11:41;;;;;;;51.92;21.02;;;;;;;3.42;100.00;102890.91;7376931;19;20844;-78
2022/12/02 00:14:21;;;;;;;58.85;21.42;;;;;;;3.43;100.00;102890.13;7376848;19;20052;-77
2022/12/02 00:16:51;;;;;;;58.40;22.15;;;;;;;3.44;100.00;102889.34;7377227;19;20098;-77
2022/12/02 00:19:21;;;;;;;56.20;23.02;;;;;;;3.46;100.00;102885.16;7373042;19;20026;-79
2022/12/02 00:21:52;;;;;;;56.30;21.77;;;;;;;3.48;100.00;102890.47;7378317;19;20018;-77
2022/12/02 00:24:22;;;;;;;62.45;22.85;;;;;;;3.47;100.00;102879.19;7375878;19;20018;-77
2022/12/02 00:26:52;;;;;;;63.88;22.60;;;;;;;3.50;100.00;102874.22;7375211;19;20026;-79
2022/12/02 00:29:24;;;;;;;66.35;23.50;;;;;;;3.49;100.00;102869.84;7374539;19;20039;-79
2022/12/02 00:31:53;;;;;;;62.17;24.02;;;;;;;3.50;100.00;102868.16;7378242;19;20011;-77
2022/12/02 00:34:23;;;;;;;62.75;24.05;;;;;;;3.50;100.00;102875.94;7377699;19;20022;-77
2022/12/02 00:36:53;;;;;;;62.55;23.92;;;;;;;3.52;100.00;102872.66;7374765;19;20014;-77
2022/12/02 00:39:22;;;;;;;59.83;23.15;;;;;;;3.52;100.00;102872.66;7371512;19;20529;-78
2022/12/02 00:41:52;;;;;;;63.22;25.70;;;;;;;3.52;100.00;102867.47;7375488;19;20011;-78
2022/12/02 00:47:07;;;;;;;55.25;21.30;;;;;;;3.53;100.00;102864.09;7375421;19;20015;-77
2022/12/02 00:49:37;;;;;;;65.07;24.92;;;;;;;3.52;100.00;102862.28;7376187;19;20025;-77
2022/12/02 00:52:06;;;;;;;58.60;22.92;;;;;;;3.54;100.00;102863.28;7373139;19;20503;-77
2022/12/02 00:54:36;;;;;;;62.42;22.58;;;;;;;3.53;100.00;102864.09;7372069;19;20105;-77
2022/12/02 00:57:05;;;;;;;61.47;25.92;;;;;;;3.52;100.00;102867.47;7373567;19;20011;-77
2022/12/02 00:59:38;;;;;;;73.45;26.05;;;;;;;3.54;100.00;102855.50;7374780;19;20021;-77
2022/12/02 01:02:07;;;;;;;62.67;25.15;;;;;;;3.55;100.00;102862.50;7373280;19;20007;-77
2022/12/02 01:04:37;;;;;;;59.50;24.05;;;;;;;3.54;100.00;102852.91;7376259;19;20117;-77
2022/12/02 01:07:07;;;;;;;68.90;25.05;;;;;;;3.56;100.00;102860.81;7370699;19;20041;-77
2022/12/02 01:09:37;;;;;;;68.72;26.00;;;;;;;3.58;100.00;102854.03;7376031;19;20476;-77
2022/12/02 01:12:07;;;;;;;65.70;26.17;;;;;;;3.57;100.00;102845.34;7372898;19;20010;-77
2022/12/02 01:14:39;;;;;;;81.05;29.40;;;;;;;3.59;100.00;102851.56;7374757;19;20011;-77
2022/12/02 01:17:08;;;;;;;64.38;27.17;;;;;;;3.61;100.00;102855.16;7370382;19;20022;-77
2022/12/02 01:19:38;;;;;;;70.47;25.60;;;;;;;3.61;100.00;102851.69;7373972;19;20424;-77
2022/12/02 01:22:08;;;;;;;75.97;28.58;;;;;;;3.58;100.00;102856.63;7375314;19;20124;-77
2022/12/02 01:24:37;;;;;;;78.93;27.05;;;;;;;3.60;100.00;102850.78;7377348;19;20018;-76
2022/12/02 01:27:07;;;;;;;77.10;27.67;;;;;;;3.57;100.00;102860.03;7374978;19;20433;-77
2022/12/02 01:29:39;;;;;;;75.57;27.30;;;;;;;3.58;100.00;102864.41;7373907;19;20021;-77
2022/12/02 01:32:09;;;;;;;71.30;27.40;;;;;;;3.59;100.00;102853.25;7375377;19;20759;-77
2022/12/02 01:34:40;;;;;;;81.07;28.05;;;;;;;3.60;100.00;102853.38;7375478;19;20014;-77
2022/12/02 01:37:10;;;;;;;85.68;28.95;;;;;;;3.60;100.00;102855.06;7370807;19;20573;-78
2022/12/02 01:39:40;;;;;;;75.40;29.17;;;;;;;3.59;100.00;102867.13;7374352;19;20655;-77
2022/12/02 01:42:10;;;;;;;79.75;30.15;;;;;;;3.54;100.00;102860.69;7371167;19;20007;-77
2022/12/02 01:44:43;;;;;;;83.85;30.88;;;;;;;3.53;100.00;102863.19;7374040;19;20403;-77
2022/12/02 01:47:12;;;;;;;83.93;28.90;;;;;;;3.54;100.00;102864.97;7371111;19;20056;-77
2022/12/02 01:49:42;;;;;;;88.32;32.17;;;;;;;3.53;100.00;102863.19;7374332;19;20018;-76
2022/12/02 01:52:12;;;;;;;95.40;31.45;;;;;;;3.56;100.00;102866.91;7372920;19;20094;-75
2022/12/02 01:54:42;;;;;;;79.15;30.23;;;;;;;3.59;100.00;102863.63;7373878;19;20333;-77
2022/12/02 01:57:14;;;;;;;97.13;33.70;;;;;;;3.52;100.00;102857.09;7372584;19;20052;-77
2022/12/02 01:59:47;;;;;;;93.40;32.67;;;;;;;3.47;100.00;102858.44;7371833;19;20018;-77
2022/12/02 02:02:30;;;;;;;83.38;30.80;;;;;;;3.48;100.00;102859.34;7369886;19;20026;-78
2022/12/02 02:05:03;;;;;;;82.82;29.23;;;;;;;3.46;100.00;102855.72;7373215;19;20025;-78
2022/12/02 02:07:35;;;;;;;88.70;31.30;;;;;;;3.42;100.00;102859.78;7368543;19;20010;-77
2022/12/02 02:10:06;;;;;;;83.70;30.58;;;;;;;3.46;100.00;102863.53;7366999;19;20014;-75
2022/12/02 02:12:36;;;;;;;92.53;34.03;;;;;;;3.43;100.00;102860.69;7368608;19;20090;-79
2022/12/02 02:15:12;;;;;;;91.55;31.25;;;;;;;3.42;100.00;102858.88;7369615;19;20019;-78
2022/12/02 02:17:42;;;;;;;94.85;33.40;;;;;;;3.40;100.00;102844.91;7370401;19;20007;-79
2022/12/02 02:20:14;;;;;;;101.57;34.50;;;;;;;3.36;100.00;102853.25;7364125;19;20011;-77
2022/12/02 02:22:48;;;;;;;84.40;32.55;;;;;;;3.37;100.00;102845.59;7368248;19;20014;-79
2022/12/02 02:25:21;;;;;;;;;;;;;;;3.35;100.00;102844.56;7367633;19;20106;-76
2022/12/02 02:27:54;;;;;;;87.22;30.30;;;;;;;3.31;100.00;102837.34;7365127;19;19930;-77
2022/12/02 02:30:24;;;;;;;86.82;31.88;;;;;;;3.28;100.00;102834.53;7368421;19;20304;-77
2022/12/02 02:32:54;;;;;;;89.20;32.80;;;;;;;3.31;100.00;102832.16;7365604;19;20011;-77
2022/12/02 02:35:24;;;;;;;90.72;31.80;;;;;;;3.30;100.00;102825.16;7370526;19;20014;-76
2022/12/02 02:37:56;;;;;;;98.15;34.00;;;;;;;3.24;100.00;102833.41;7371003;19;20447;-78
2022/12/02 02:40:31;;;;;;;102.68;33.97;;;;;;;3.26;100.00;102816.25;7366780;19;20018;-77
2022/12/02 02:43:03;;;;;;;93.15;31.38;;;;;;;3.27;100.00;102822.34;7369671;19;20014;-78
2022/12/02 02:45:37;;;;;;;93.53;33.47;;;;;;;3.21;100.00;102821.88;7371926;19;20011;-78
2022/12/02 02:48:08;;;;;;;;;;;;;;;3.20;100.00;102820.09;7374696;19;20061;-78
2022/12/02 02:50:39;;;;;;;88.72;30.65;;;;;;;3.18;100.00;102816.47;7373756;19;19986;-78
2022/12/02 02:53:10;;;;;;;87.63;32.50;;;;;;;3.16;100.00;102812.88;7366461;19;20094;-78
2022/12/02 02:55:43;;;;;;;99.57;34.75;;;;;;;3.17;100.00;102825.94;7368711;19;20007;-78
2022/12/02 02:58:20;;;;;;;82.28;30.55;;;;;;;3.13;100.00;102818.72;7367466;19;20011;-78
2022/12/02 03:00:54;;;;;;;90.75;30.85;;;;;;;3.17;100.00;102817.25;7368179;19;20022;-78
2022/12/02 03:03:28;;;;;;;88.75;31.10;;;;;;;3.17;100.00;102814.66;7370966;19;20507;-78
2022/12/02 03:05:59;;;;;;;101.15;31.45;;;;;;;3.17;100.00;102806.91;7367510;19;20014;-78
2022/12/02 03:08:30;;;;;;;90.18;35.00;;;;;;;3.11;100.00;102803.88;7367451;19;20022;-78
2022/12/02 03:11:04;;;;;;;100.40;32.58;;;;;;;3.12;100.00;102803.97;7363215;19;20030;-78
2022/12/02 03:13:37;;;;;;;92.25;32.53;;;;;;;3.12;100.00;102798.78;7365766;19;20524;-78
2022/12/02 03:16:11;;;;;;;102.82;35.13;;;;;;;3.10;100.00;102791.72;7365970;19;20090;-78
2022/12/02 03:18:43;;;;;;;94.03;34.40;;;;;;;3.09;100.00;102789.91;7366878;19;20011;-78
2022/12/02 03:21:13;;;;;;;88.72;32.72;;;;;;;3.09;100.00;102801.16;7365963;19;20225;-78
2022/12/02 03:23:43;;;;;;;99.70;34.67;;;;;;;3.11;100.00;102797.00;7371429;19;20702;-78
2022/12/02 03:26:17;;;;;;;101.38;33.33;;;;;;;3.11;100.00;102793.50;7373166;19;20470;-78
2022/12/02 03:28:48;;;;;;;86.93;31.90;;;;;;;3.15;100.00;102792.91;7373227;19;20014;-78
2022/12/02 03:31:19;;;;;;;88.32;30.58;;;;;;;3.13;100.00;102795.41;7372333;19;20018;-78
2022/12/02 03:33:49;;;;;;;89.68;31.80;;;;;;;3.18;100.00;102803.50;7368122;19;20138;-78
2022/12/02 03:36:19;;;;;;;95.32;32.20;;;;;;;3.16;100.00;102807.69;7371981;19;20044;-78
2022/12/02 03:38:49;;;;;;;90.93;33.35;;;;;;;3.15;100.00;102801.59;7372160;19;20014;-78
2022/12/02 03:41:22;;;;;;;94.47;31.15;;;;;;;3.12;100.00;102791.00;7367519;19;20015;-78
2022/12/02 03:43:52;;;;;;;102.35;32.78;;;;;;;3.18;100.00;102790.56;7369802;19;20007;-78
2022/12/02 03:46:22;;;;;;;88.10;31.00;;;;;;;3.15;100.00;102777.34;7368868;19;20018;-78
2022/12/02 03:48:52;;;;;;;89.88;30.27;;;;;;;3.14;100.00;102779.03;7373939;19;20553;-78
2022/12/02 03:51:22;;;;;;;86.00;28.60;;;;;;;3.12;100.00;102770.25;7371181;19;20022;-78
2022/12/02 03:53:51;;;;;;;90.05;29.92;;;;;;;3.10;100.00;102766.69;7366867;19;20030;-78
2022/12/02 03:56:24;;;;;;;81.78;26.00;;;;;;;3.11;100.00;102765.91;7371646;19;20104;-78
2022/12/02 03:58:54;;;;;;;90.63;29.42;;;;;;;3.13;100.00;102776.34;7369988;19;20035;-78
2022/12/02 04:01:24;;;;;;;78.05;27.23;;;;;;;3.11;100.00;102778.84;7369016;19;20026;-78
2022/12/02 04:03:54;;;;;;;83.82;30.30;;;;;;;3.15;100.00;102782.53;7368900;19;20502;-78
2022/12/02 04:06:24;;;;;;;86.60;31.83;;;;;;;3.16;100.00;102779.16;7368718;19;20021;-78
2022/12/02 04:08:54;;;;;;;91.45;28.88;;;;;;;3.17;100.00;102781.88;7370613;19;20558;-78
2022/12/02 04:11:26;;;;;;;85.97;29.70;;;;;;;3.17;100.00;102773.19;7368662;19;20006;-78
2022/12/02 04:13:55;;;;;;;86.28;27.98;;;;;;;3.17;100.00;102780.97;7371728;19;20038;-78
2022/12/02 04:16:25;;;;;;;82.43;27.48;;;;;;;3.18;100.00;102770.72;7372162;19;20015;-78
2022/12/02 04:18:55;;;;;;;92.10;29.30;;;;;;;3.16;100.00;102769.69;7373414;19;20022;-78
2022/12/02 04:21:25;;;;;;;86.80;29.02;;;;;;;3.15;100.00;102767.00;7372302;19;20011;-78
2022/12/02 04:23:55;;;;;;;86.70;29.88;;;;;;;3.17;100.00;102770.59;7371428;19;20026;-78
2022/12/02 04:26:27;;;;;;;88.28;29.25;;;;;;;3.16;100.00;102764.50;7375339;19;20010;-78
2022/12/02 04:28:57;;;;;;;87.57;28.05;;;;;;;3.16;100.00;102758.41;7372147;19;20026;-78
2022/12/02 04:31:27;;;;;;;87.18;29.92;;;;;;;3.18;100.00;102760.34;7375509;19;20024;-78
2022/12/02 04:33:57;;;;;;;81.00;27.42;;;;;;;3.18;100.00;102756.84;7369237;19;20027;-78
2022/12/02 04:36:27;;;;;;;97.75;29.95;;;;;;;3.18;100.00;102754.25;7374584;19;20023;-78
2022/12/02 04:38:56;;;;;;;86.22;30.02;;;;;;;3.16;100.00;102758.41;7371368;19;22249;-78
2022/12/02 04:41:29;;;;;;;97.25;30.95;;;;;;;3.18;100.00;102754.25;7370048;19;20010;-78
2022/12/02 04:43:59;;;;;;;83.55;29.00;;;;;;;3.21;100.00;102754.47;7373028;19;20025;-78
2022/12/02 04:46:28;;;;;;;95.22;29.77;;;;;;;3.17;100.00;102752.44;7372737;19;20018;-78
2022/12/02 04:48:58;;;;;;;91.18;29.65;;;;;;;3.18;100.00;102743.88;7371128;19;20017;-78
2022/12/02 04:51:28;;;;;;;75.38;28.30;;;;;;;3.21;100.00;102739.81;7368031;19;20497;-78
2022/12/02 04:53:58;;;;;;;76.43;24.67;;;;;;;3.29;100.00;102748.16;7369087;19;20015;-78
2022/12/02 04:56:30;;;;;;;80.22;27.35;;;;;;;3.29;100.00;102737.78;7373215;19;20014;-78
2022/12/02 04:59:00;;;;;;;81.53;27.25;;;;;;;3.25;100.00;102736.66;7372801;19;20033;-79
2022/12/02 05:01:29;;;;;;;79.25;28.38;;;;;;;3.27;100.00;102735.09;7367343;19;20018;-77
2022/12/02 05:03:59;;;;;;;80.30;29.50;;;;;;;3.28;100.00;102733.38;7372471;19;20022;-77
2022/12/02 05:06:29;;;;;;;77.35;25.02;;;;;;;3.29;100.00;102727.41;7373283;19;20018;-78
2022/12/02 05:08:59;;;;;;;81.40;26.45;;;;;;;3.26;100.00;102732.38;7374764;19;20014;-77
2022/12/02 05:11:31;;;;;;;78.07;27.27;;;;;;;3.29;100.00;102728.31;7375882;19;20018;-78
2022/12/02 05:14:05;;;;;;;85.78;28.45;;;;;;;3.29;100.00;102724.81;7372525;19;20038;-78
2022/12/02 05:16:34;;;;;;;87.07;27.60;;;;;;;3.27;100.00;102729.00;7373742;19;20021;-79
2022/12/02 05:19:04;;;;;;;84.75;29.52;;;;;;;3.23;100.00;102721.78;7377613;19;20047;-78
2022/12/02 05:21:34;;;;;;;81.68;25.17;;;;;;;3.28;100.00;102723.00;7369979;19;20019;-78
2022/12/02 05:24:04;;;;;;;68.47;26.23;;;;;;;3.23;100.00;102711.41;7373017;19;20029;-78
2022/12/02 05:26:36;;;;;;;71.28;25.25;;;;;;;3.22;100.00;102719.97;7370493;19;20018;-79
2022/12/02 05:29:09;;;;;;;71.93;25.80;;;;;;;3.21;100.00;102724.25;7370738;19;20022;-78
2022/12/02 05:31:38;;;;;;;74.88;22.52;;;;;;;3.23;100.00;102727.88;7369369;19;20035;-79
2022/12/02 05:34:08;;;;;;;73.82;25.42;;;;;;;3.26;100.00;102720.31;7370451;19;20015;-79
2022/12/02 05:36:38;;;;;;;70.18;25.60;;;;;;;3.22;100.00;102727.75;7370512;19;20013;-79
2022/12/02 05:39:07;;;;;;;75.10;25.27;;;;;;;3.25;100.00;102733.16;7369160;19;20022;-79
2022/12/02 05:41:40;;;;;;;66.28;24.58;;;;;;;3.21;100.00;102725.94;7367571;19;20052;-79
2022/12/02 05:44:20;;;;;;;64.80;22.73;;;;;;;3.20;100.00;102729.34;7368853;19;20033;-79
2022/12/02 05:46:51;;;;;;;68.47;26.02;;;;;;;3.21;100.00;102720.78;7369658;19;20169;-78
2022/12/02 05:49:22;;;;;;;74.45;26.52;;;;;;;3.20;100.00;102718.97;7366495;19;20021;-79
2022/12/02 05:51:57;;;;;;;74.50;24.85;;;;;;;3.20;100.00;102721.56;7367337;19;20671;-77
2022/12/02 05:54:27;;;;;;;61.95;24.13;;;;;;;3.26;100.00;102722.00;7368432;19;20029;-77
2022/12/02 05:57:04;;;;;;;72.13;23.35;;;;;;;3.23;100.00;102716.59;7367142;19;20017;-79
2022/12/02 05:59:34;;;;;;;58.88;22.35;;;;;;;3.15;100.00;102723.81;7368164;19;20007;-79
2022/12/02 06:02:04;;;;;;;83.82;27.25;;;;;;;3.11;100.00;102713.13;7365772;19;20018;-78
2022/12/02 06:04:35;;;;;;;78.93;26.05;;;;;;;3.16;100.00;102716.94;7369926;19;20014;-79
2022/12/02 06:07:13;;;;;;;61.08;22.42;;;;;;;3.15;100.00;102715.13;7364725;19;20710;-79
2022/12/02 06:09:44;;;;;;;80.63;25.10;;;;;;;3.17;100.00;102716.16;7368465;19;20026;-79
2022/12/02 06:12:19;;;;;;;78.65;27.00;;;;;;;3.10;100.00;102721.72;7365925;19;20015;-80
2022/12/02 06:14:53;;;;;;;85.55;28.30;;;;;;;3.06;100.00;102720.59;7373568;19;20014;-79
2022/12/02 06:17:23;;;;;;;71.47;27.55;;;;;;;3.09;100.00;102732.88;7367757;19;20050;-79
2022/12/02 06:19:55;;;;;;;82.25;26.55;;;;;;;3.08;100.00;102725.88;7371080;19;20015;-79
2022/12/02 06:22:28;;;;;;;67.75;26.45;;;;;;;3.02;100.00;102717.66;7364410;19;20498;-78
2022/12/02 06:25:03;;;;;;;73.53;24.42;;;;;;;3.04;100.00;102718.66;7367527;19;20462;-78
2022/12/02 06:27:35;;;;;;;68.15;21.83;;;;;;;2.94;100.00;102725.75;7368331;19;21007;-80
2022/12/02 06:30:09;;;;;;;77.30;25.20;;;;;;;2.89;100.00;102719.34;7370498;19;20018;-79
2022/12/02 06:32:40;;;;;;;;;;;;;;;2.90;100.00;102715.06;7371519;19;20086;-77
2022/12/02 06:35:23;;;;;;;71.00;23.05;;;;;;;2.86;100.00;102715.63;7369200;19;19914;-78
2022/12/02 06:37:57;;;;;;;63.90;21.65;;;;;;;2.85;100.00;102717.31;7369863;19;20475;-78
2022/12/02 06:40:29;;;;;;;66.95;23.42;;;;;;;2.84;100.00;102728.47;7368726;19;20021;-78
2022/12/02 06:43:09;;;;;;;73.23;21.87;;;;;;;2.85;100.00;102725.09;7367809;19;20015;-78
2022/12/02 06:45:38;;;;;;;68.85;22.23;;;;;;;2.82;100.00;102719.66;7371324;19;20026;-78
2022/12/02 06:48:29;;;;;;;61.53;21.10;;;;;;;2.86;100.00;102716.53;7371275;19;20014;-79
2022/12/02 06:51:02;;;;;;;61.70;21.05;;;;;;;2.83;100.00;102716.28;7376369;19;20021;-78
2022/12/02 06:53:37;;;;;;;59.17;21.97;;;;;;;2.83;100.00;102720.56;7367470;19;20019;-78
2022/12/02 06:56:13;;;;;;;65.82;24.85;;;;;;;2.82;100.00;102727.44;7373038;19;20011;-78
2022/12/02 06:58:48;;;;;;;62.03;20.48;;;;;;;2.79;100.00;102727.22;7376138;19;20010;-78
2022/12/02 07:01:23;;;;;;;60.35;21.77;;;;;;;2.79;100.00;102726.31;7377160;19;20851;-77
2022/12/02 07:04:16;;;;;;;62.63;21.25;;;;;;;2.77;100.00;102725.31;7380846;19;20314;-78
2022/12/02 07:06:51;;;;;;;62.80;20.50;;;;;;;2.82;100.00;102719.66;7378400;19;20467;-77
2022/12/02 07:09:30;;;;;;;67.07;22.00;;;;;;;2.80;100.00;102725.53;7379399;19;20015;-79
2022/12/02 07:12:01;;;;;;;62.10;22.00;;;;;;;2.75;100.00;102730.38;7378579;19;20111;-78
2022/12/02 07:14:45;;;;;;;58.42;21.33;;;;;;;2.75;100.00;102729.47;7376785;19;20014;-77
2022/12/02 07:17:21;;;;;;;70.45;23.92;;;;;;;2.71;100.00;102730.03;7377366;19;20048;-78
2022/12/02 07:19:57;;;;;;;64.03;22.20;;;;;;;2.68;100.00;102733.28;7376964;19;20018;-78
2022/12/02 07:22:33;;;;;;;60.28;20.52;;;;;;;2.65;100.00;102738.25;7379477;19;20086;-79
2022/12/02 07:25:32;;;;;;;60.50;21.63;;;;;;;2.62;100.00;102738.00;7381046;19;20010;-79
2022/12/02 07:28:03;;;;;;;58.15;19.63;;;;;;;2.68;100.00;102737.56;7379291;19;20018;-78
2022/12/02 07:30:38;;;;;;;68.03;22.48;;;;;;;2.65;100.00;102743.41;7378097;19;20015;-78
2022/12/02 07:33:08;;;;;;;62.80;19.83;;;;;;;2.67;100.00;102736.66;7380047;19;20019;-77
2022/12/02 07:35:38;;;;;;;51.85;20.20;;;;;;;2.60;100.00;102747.34;7379331;19;20018;-80
2022/12/02 07:38:08;;;;;;;66.15;21.23;;;;;;;2.51;100.00;102752.72;7379545;19;20086;-76
2022/12/02 07:40:38;;;;;;;53.80;18.38;;;;;;;2.54;100.00;102749.47;7379393;19;20006;-77
2022/12/02 07:43:08;;;;;;;58.85;20.17;;;;;;;2.58;100.00;102744.66;7373728;19;20339;-79
2022/12/02 07:45:41;;;;;;;50.08;19.48;;;;;;;2.52;100.00;102748.47;7378685;19;20017;-78
2022/12/02 07:48:11;;;;;;;57.90;20.45;;;;;;;2.50;100.00;102750.03;7376439;19;20316;-79
2022/12/02 07:50:41;;;;;;;56.45;20.40;;;;;;;2.48;100.00;102749.00;7376569;19;20046;-78
2022/12/02 07:53:11;;;;;;;64.22;19.77;;;;;;;2.47;100.00;102747.19;7375644;19;20035;-78
2022/12/02 07:55:41;;;;;;;47.28;17.67;;;;;;;2.37;100.00;102757.66;7376749;19;20019;-79
2022/12/02 07:58:11;;;;;;;47.53;17.98;;;;;;;2.34;100.00;102754.81;7373488;19;20530;-77
2022/12/02 08:00:43;;;;;;;64.20;20.45;;;;;;;2.26;100.00;102752.53;7377836;19;20114;-77
2022/12/02 08:03:13;;;;;;;50.92;17.83;;;;;;;2.30;100.00;102758.84;7369502;19;20007;-77
2022/12/02 08:05:43;;;;;;;61.08;20.60;;;;;;;2.22;100.00;102758.28;7371268;19;20015;-78
2022/12/02 08:08:15;;;;;;;46.47;16.85;;;;;;;2.29;100.00;102765.72;7373499;19;20014;-77
2022/12/02 08:10:46;;;;;;;47.92;14.82;;;;;;;2.21;100.00;102760.75;7373504;19;20050;-77
2022/12/02 08:13:16;;;;;;;53.05;19.17;;;;;;;2.22;100.00;102766.03;7376118;19;20018;-78
2022/12/02 08:15:49;;;;;;;53.10;18.13;;;;;;;2.24;100.00;102754.13;7374592;19;20014;-77
2022/12/02 08:18:22;;;;;;;52.17;16.17;;;;;;;2.20;100.00;102757.25;7375436;19;20011;-78
2022/12/02 08:20:52;;;;;;;49.55;16.45;;;;;;;2.19;100.00;102755.44;7375049;19;20011;-79
2022/12/02 08:23:22;;;;;;;49.97;17.98;;;;;;;2.21;100.00;102753.88;7373543;19;20098;-77
2022/12/02 08:25:52;;;;;;;45.58;15.05;;;;;;;2.27;100.00;102764.69;7374950;19;20006;-76
2022/12/02 08:28:21;;;;;;;43.92;14.50;;;;;;;2.29;100.00;102767.41;7374714;19;20026;-79
2022/12/02 08:30:54;;;;;;;54.67;16.20;;;;;;;2.24;100.00;102758.38;7376210;19;20021;-77
2022/12/02 08:33:24;;;;;;;37.08;13.90;;;;;;;2.32;100.00;102761.56;7378537;19;20015;-78
2022/12/02 08:35:54;;;;;;;49.58;15.13;;;;;;;2.34;100.00;102765.19;7377441;19;20396;-77
2022/12/02 08:38:23;;;;;;;46.25;15.80;;;;;;;2.40;100.00;102763.97;7377982;19;20062;-78
2022/12/02 08:40:53;;;;;;;39.05;15.15;;;;;;;2.44;100.00;102766.00;7376363;19;20050;-79
2022/12/02 08:43:23;;;;;;;42.05;14.02;;;;;;;2.47;100.00;102757.56;7374672;19;20014;-78
2022/12/02 08:45:56;;;;;;;45.60;16.02;;;;;;;2.41;100.00;102762.28;7376579;19;20017;-78
2022/12/02 08:48:25;;;;;;;43.47;13.93;;;;;;;2.45;100.00;102759.13;7372472;19;20090;-76
2022/12/02 08:50:56;;;;;;;41.35;15.23;;;;;;;2.39;100.00;102762.16;7371873;19;20010;-76
2022/12/02 08:53:26;;;;;;;43.20;16.55;;;;;;;2.34;100.00;102765.19;7371954;19;20010;-76
2022/12/02 08:56:01;;;;;;;46.05;14.43;;;;;;;2.35;100.00;102772.16;7374788;19;20502;-79
2022/12/02 08:58:30;;;;;;;46.40;15.93;;;;;;;2.34;100.00;102768.66;7373616;19;20034;-76
2022/12/02 09:01:03;;;;;;;35.45;13.90;;;;;;;2.36;100.00;102769.69;7375100;19;20007;-77
2022/12/02 09:03:33;;;;;;;38.15;13.32;;;;;;;2.37;100.00;102770.59;7376092;19;20011;-77
2022/12/02 09:06:03;;;;;;;42.92;13.82;;;;;;;2.38;100.00;102757.75;7375972;19;20151;-77
2022/12/02 09:08:33;;;;;;;39.25;15.50;;;;;;;2.46;100.00;102766.13;7376134;19;20100;-76
2022/12/02 09:11:03;;;;;;;37.55;14.90;;;;;;;2.48;100.00;102764.53;7375042;19;20014;-76
2022/12/02 09:13:33;;;;;;;36.55;13.38;;;;;;;2.46;100.00;102771.31;7372082;19;20006;-76
2022/12/02 09:16:08;;;;;;;41.80;13.75;;;;;;;2.50;100.00;102768.16;7373970;19;20002;-76
2022/12/02 09:18:38;;;;;;;37.90;13.95;;;;;;;2.54;100.00;102758.16;7370293;19;20018;-78
2022/12/02 09:21:08;;;;;;;37.58;14.30;;;;;;;2.53;100.00;102763.22;7375195;19;20031;-78
2022/12/02 09:23:38;;;;;;;31.77;12.20;;;;;;;2.59;100.00;102754.22;7370894;19;20027;-76
2022/12/02 09:26:08;;;;;;;42.30;14.18;;;;;;;2.59;100.00;102763.69;7372229;19;20021;-76
2022/12/02 09:28:37;;;;;;;38.35;13.85;;;;;;;2.62;100.00;102763.91;7371048;19;20006;-76
2022/12/02 09:31:10;;;;;;;34.88;13.93;;;;;;;2.61;100.00;102763.00;7372895;19;20011;-78
2022/12/02 09:33:39;;;;;;;35.65;13.32;;;;;;;2.74;100.00;102764.84;7374294;19;20018;-77
2022/12/02 09:36:10;;;;;;;33.60;13.77;;;;;;;2.72;100.00;102771.59;7376300;19;20010;-76
2022/12/02 09:38:40;;;;;;;40.83;15.27;;;;;;;2.68;100.00;102769.56;7373970;19;20334;-77
2022/12/02 09:41:10;;;;;;;31.83;12.77;;;;;;;2.72;100.00;102765.50;7370945;19;20089;-79
2022/12/02 09:43:41;;;;;;;35.38;11.10;;;;;;;2.69;100.00;102770.47;7371792;19;20086;-79
2022/12/02 09:46:13;;;;;;;35.45;12.32;;;;;;;2.68;100.00;102766.06;7368254;19;20038;-78
2022/12/02 09:48:50;;;;;;;28.75;11.55;;;;;;;2.71;100.00;102769.78;7369203;19;20021;-78
2022/12/02 09:51:19;;;;;;;29.48;11.77;;;;;;;2.71;100.00;102774.06;7368006;19;20716;-77
2022/12/02 09:53:49;;;;;;;35.42;12.88;;;;;;;2.61;100.00;102773.38;7371285;19;20025;-78
2022/12/02 09:56:21;;;;;;;33.13;13.52;;;;;;;2.65;100.00;102768.41;7366445;19;20021;-78
2022/12/02 09:58:53;;;;;;;34.70;12.45;;;;;;;2.63;100.00;102761.44;7367321;19;20514;-78
2022/12/02 10:01:27;;;;;;;27.45;11.18;;;;;;;2.52;100.00;102761.41;7367803;19;20117;-77
2022/12/02 10:03:57;;;;;;;34.75;11.48;;;;;;;2.58;100.00;102769.63;7368991;19;20022;-77
2022/12/02 10:06:30;;;;;;;30.70;11.68;;;;;;;2.57;100.00;102754.88;7368838;19;20018;-77
2022/12/02 10:09:00;;;;;;;31.27;12.55;;;;;;;2.61;100.00;102756.94;7366613;19;20014;-78
2022/12/02 10:11:34;;;;;;;30.02;11.77;;;;;;;2.69;100.00;102745.44;7371900;19;20021;-78
2022/12/02 10:14:05;;;;;;;37.33;13.40;;;;;;;2.63;100.00;102750.16;7367887;19;20006;-76
2022/12/02 10:16:39;;;;;;;34.05;14.27;;;;;;;2.72;100.00;102745.69;7372071;19;20031;-77
2022/12/02 10:19:14;;;;;;;31.88;11.63;;;;;;;2.83;100.00;102746.50;7367205;19;20049;-76
2022/12/02 10:21:44;;;;;;;29.52;11.70;;;;;;;2.86;100.00;102739.84;7368318;19;20439;-77
2022/12/02 10:24:14;;;;;;;36.50;13.90;;;;;;;2.84;100.00;102738.81;7373522;19;20022;-76
2022/12/02 10:26:47;;;;;;;35.38;11.75;;;;;;;2.86;100.00;102725.97;7372623;19;20022;-76
2022/12/02 10:29:20;;;;;;;28.55;9.85;;;;;;;2.95;100.00;102724.97;7370827;19;20106;-76
2022/12/02 10:32:00;;;;;;;31.13;12.07;;;;;;;2.99;100.00;102720.91;7371089;19;20010;-76
2022/12/02 10:34:32;;;;;;;36.30;13.15;;;;;;;3.02;100.00;102725.44;7375271;19;20048;-76
2022/12/02 10:37:18;;;;;;;35.83;12.55;;;;;;;3.00;100.00;102724.41;7371559;19;20010;-79
2022/12/02 10:39:47;;;;;;;29.77;11.45;;;;;;;2.88;100.00;102720.13;7372095;19;20134;-80
2022/12/02 10:42:20;;;;;;;30.05;11.85;;;;;;;2.87;100.00;102715.72;7370548;19;20114;-78
2022/12/02 10:45:10;;;;;;;26.95;10.55;;;;;;;2.84;100.00;102714.59;7370607;19;20024;-78
2022/12/02 10:47:43;;;;;;;29.42;11.05;;;;;;;2.75;100.00;102709.63;7370709;19;20046;-77
2022/12/02 10:50:21;;;;;;;32.10;12.38;;;;;;;2.75;100.00;102704.47;7371176;19;20010;-78
2022/12/02 10:52:53;;;;;;;29.67;11.48;;;;;;;2.86;100.00;102698.38;7368082;19;20022;-78
2022/12/02 10:55:29;;;;;;;35.75;13.13;;;;;;;3.15;100.00;102687.50;7371240;19;20363;-77
2022/12/02 10:58:00;;;;;;;29.85;11.52;;;;;;;3.54;100.00;102693.75;7366923;19;20011;-78
2022/12/02 11:00:29;;;;;;;27.95;11.10;;;;;;;3.68;100.00;102689.56;7368280;19;20064;-78
2022/12/02 11:03:06;;;;;;;34.25;12.90;;;;;;;3.70;100.00;102696.66;7372843;19;20581;-78
2022/12/02 11:05:37;;;;;;;32.03;12.35;;;;;;;3.52;100.00;102706.63;7365649;19;20011;-79
2022/12/02 11:08:18;;;;;;;25.38;10.35;;;;;;;3.59;100.00;102695.88;7369021;19;20018;-78
2022/12/02 11:10:50;;;;;;;26.38;10.88;;;;;;;3.52;100.00;102687.56;7361017;19;20514;-79
2022/12/02 11:13:49;;;;;;;31.88;14.10;;;;;;;3.48;100.00;102695.91;7362865;19;20042;-79
2022/12/02 11:16:48;;;;;;;30.85;12.00;;;;;;;3.44;100.00;102691.31;7371319;19;20609;-78
2022/12/02 11:19:45;;;;;;;34.97;13.45;;;;;;;3.45;100.00;102683.63;7365973;19;20034;-79
2022/12/02 11:22:45;;;;;;;30.73;11.50;;;;;;;3.44;100.00;102686.13;7365909;19;20025;-79
2022/12/02 11:25:46;;;;;;;22.70;9.68;;;;;;;3.37;100.00;102684.78;7366843;19;20018;-79
2022/12/02 11:28:46;;;;;;;40.28;13.32;;;;;;;3.43;100.00;102672.25;7370682;19;20007;-79
2022/12/02 11:31:26;;;;;;;31.70;11.70;;;;;;;3.45;100.00;102673.25;7371202;19;20102;-79
2022/12/02 11:34:03;;;;;;;37.83;12.40;;;;;;;3.66;100.00;102668.69;7372418;19;20025;-79
2022/12/02 11:36:38;;;;;;;38.67;13.00;;;;;;;3.53;100.00;102672.09;7371545;19;20011;-78